Private Wetterstation Nrnberg - Katzwang
Wetterdaten: August 2012
Datum Temp. A. Feuchte A. Luftdruck Regen Wind Richtung Taupunkt Windchill Windben
01.08.2012 23,9 C 53 % 1012 hPa 0,0 l/m 0,0 km/h O 12,7 C 23,9 C 1,0 km/h
02.08.2012 24,3 C 56 % 1012 hPa 0,0 l/m 0,9 km/h W-NW 14,8 C 24,3 C 1,9 km/h
03.08.2012 21,9 C 66 % 1014 hPa 4,7 l/m 1,7 km/h W-NW 14,9 C 21,9 C 2,7 km/h
04.08.2012 22,1 C 64 % 1012 hPa 0,0 l/m 1,7 km/h NO 14,7 C 22,1 C 2,7 km/h
05.08.2012 24,0 C 63 % 1009 hPa 0,0 l/m 5,5 km/h N-NO 16,2 C 23,9 C 6,5 km/h
06.08.2012 18,8 C 79 % 1013 hPa 3,6 l/m 1,6 km/h W-NW 15,0 C 18,8 C 2,6 km/h
07.08.2012 18,5 C 65 % 1020 hPa 0,0 l/m 4,6 km/h W-NW 11,6 C 18,2 C 5,6 km/h
08.08.2012 17,4 C 64 % 1022 hPa 0,0 l/m 0,0 km/h N-NO 10,1 C 17,4 C 1,0 km/h
09.08.2012 18,4 C 64 % 1021 hPa 0,0 l/m 1,0 km/h NO 11,3 C 18,4 C 2,0 km/h
10.08.2012 18,7 C 63 % 1021 hPa 0,0 l/m 3,1 km/h N-NO 11,3 C 18,7 C 4,1 km/h
11.08.2012 16,6 C 60 % 1019 hPa 0,0 l/m 3,9 km/h N-NO 8,6 C 15,9 C 5,8 km/h
12.08.2012 18,5 C 53 % 1014 hPa 0,0 l/m 3,8 km/h O 8,0 C 18,1 C 6,3 km/h
13.08.2012 20,1 C 50 % 1013 hPa 0,0 l/m 5,5 km/h O 8,4 C 19,9 C 6,5 km/h
14.08.2012 21,5 C 51 % 1013 hPa 0,0 l/m 0,0 km/h N-NO 10,2 C 21,5 C 1,0 km/h
15.08.2012 23,7 C 49 % 1011 hPa 0,0 l/m 3,1 km/h O-NO 11,6 C 23,7 C 4,1 km/h
16.08.2012 19,1 C 80 % 1017 hPa 7,3 l/m 3,4 km/h W-NW 15,6 C 19,1 C 4,4 km/h
17.08.2012 20,7 C 67 % 1019 hPa 0,0 l/m 1,5 km/h N-NO 14,0 C 20,7 C 2,5 km/h
18.08.2012 23,5 C 57 % 1019 hPa 0,0 l/m 1,7 km/h NO 13,9 C 23,5 C 2,7 km/h
19.08.2012 26,3 C 52 % 1018 hPa 0,0 l/m 5,3 km/h NO 14,7 C 26,3 C 6,3 km/h
20.08.2012 28,3 C 53 % 1017 hPa 0,0 l/m 7,5 km/h W-NW 17,0 C 28,0 C 8,5 km/h
21.08.2012 28,7 C 51 % 1014 hPa 0,0 l/m 6,5 km/h N 16,8 C 28,6 C 7,5 km/h
22.08.2012 24,3 C 59 % 1014 hPa 0,5 l/m 1,0 km/h N 15,3 C 24,3 C 2,0 km/h
23.08.2012 22,1 C 53 % 1012 hPa 0,0 l/m 0,9 km/h N-NO 11,3 C 22,1 C 1,9 km/h
24.08.2012 21,1 C 77 % 1008 hPa 7,8 l/m 2,4 km/h N 16,8 C 21,0 C 3,4 km/h
25.08.2012 22,5 C 63 % 1008 hPa 1,0 l/m 2,4 km/h N 14,8 C 22,5 C 3,4 km/h
26.08.2012 18,3 C 66 % 1014 hPa 0,0 l/m 7,7 km/h N 11,6 C 17,2 C 8,7 km/h
27.08.2012 18,0 C 59 % 1019 hPa 0,0 l/m 3,1 km/h N-NO 9,4 C 18,0 C 4,1 km/h
28.08.2012 21,7 C 55 % 1017 hPa 0,0 l/m 0,5 km/h N 11,6 C 21,7 C 1,5 km/h
29.08.2012 24,0 C 53 % 1016 hPa 0,0 l/m 5,0 km/h N-NO 13,1 C 24,0 C 6,0 km/h
30.08.2012 19,4 C 76 % 1015 hPa 29,5 l/m 0,0 km/h N 14,8 C 19,4 C 1,0 km/h
31.08.2012 15,2 C 80 % 1016 hPa 0,0 l/m 0,0 km/h W-NW 11,7 C 15,2 C 1,0 km/h
Min-Datum 12.08.12 19.08.12 05.08.12 7 Tage 01.08.12 - 12.08.12 12.08.12 01.08.12
Min-Zeit 06:20 17:20 22:30 - 00:00 - 06:10 06:20 00:00
Minimum 8,5 C 26 % 1007 hPa - 0,0 km/h - 5,0 C 8,5 C 1,0 km/h
Max-Datum 20.08.12 17.08.12 08.08.12 30.08.12 22.08.12 - 22.08.12 20.08.12 28.08.12
Max-Zeit 15:00 05:50 08:50 17:10 16:50 - 10:30 15:00 15:20
Maximum 38,5 C 85 % 1023 hPa 29,5 l/m 31,5 km/h
N
- 19,8 C 38,5 C 106,3 km/h
N
Durchschnitt 21,3 C 61 % 1015 hPa #54,4 l/m 2,7 km/h N 13,0 C 21,2 C 3,8 km/h

Durchschnitt Minimum Temp.14,8 C
Durchschnitt Maximum Temp.28,1 C